Terminal Aerodrome Forecast
Issued by NWS Albany, NY

Current Version | Previous Version | Text Only | Print | Product List | Glossary On
Versions: 1 2 3 4 5 6 7 8 9 10 11 12 13 14 15 16 17 18 19 20 21 22 23 24 25
000
FTUS41 KALY 281621 AAA
TAFALB
TAF AMD
KALB 281621Z 2816/2912 28011KT P6SM SCT060
      TEMPO 2816/2820 BKN060
     FM290000 28006KT P6SM FEW200
     FM290300 21003KT P6SM SCT150
     FM290600 19004KT P6SM BKN060=

USA.gov is the U.S. government's official web portal to all federal, state and local government web resources and services.